Time;durP1;ratioP1;P1;durP2;ratioP2;P2;SDS_P1;SDS_P2;PMS_P1;PMS_P2;Temp;Humidity;BMP_temperature;BMP_pressure;BME280_temperature;BME280_humidity;BME280_pressure;Samples;Min_cycle;Max_cycle;Signal;HPM_P1;HPM_P2
2024/01/07 00:02:54;;;;;;;1.13;1.03;;;;;;;;;;6171838;23;20173;-91
2024/01/07 00:05:59;;;;;;;1.50;1.23;;;;;;;;;;6172581;23;20181;-92
2024/01/07 00:09:05;;;;;;;2.60;1.70;;;;;;;;;;6171176;23;20192;-91
2024/01/07 00:12:10;;;;;;;1.63;1.30;;;;;;;;;;6172444;23;20484;-93
2024/01/07 00:15:16;;;;;;;1.20;1.10;;;;;;;;;;6172497;23;20176;-91
2024/01/07 00:18:24;;;;;;;1.10;1.10;;;;;;;;;;6171829;23;20212;-91
2024/01/07 00:21:29;;;;;;;1.03;1.03;;;;;;;;;;6171420;23;20168;-93
2024/01/07 00:24:34;;;;;;;1.03;0.90;;;;;;;;;;6170314;23;20194;-93
2024/01/07 00:27:40;;;;;;;2.20;1.47;;;;;;;;;;6170283;23;20205;-92
2024/01/07 00:30:45;;;;;;;1.07;0.97;;;;;;;;;;6170918;23;20500;-93
2024/01/07 00:33:53;;;;;;;1.17;1.07;;;;;;;;;;6170626;23;20197;-91
2024/01/07 00:36:58;;;;;;;1.23;1.13;;;;;;;;;;6170455;23;20272;-94
2024/01/07 00:40:04;;;;;;;1.57;1.17;;;;;;;;;;6171297;23;20172;-92
2024/01/07 00:43:10;;;;;;;2.37;1.67;;;;;;;;;;6172129;23;20169;-92
2024/01/07 00:46:15;;;;;;;1.17;0.97;;;;;;;;;;6173543;23;20168;-92
2024/01/07 00:49:22;;;;;;;1.00;1.00;;;;;;;;;;6172645;23;20263;-94
2024/01/07 00:52:28;;;;;;;3.43;1.77;;;;;;;;;;6173953;23;20281;-92
2024/01/07 00:55:37;;;;;;;1.10;1.00;;;;;;;;;;6173575;23;20180;-89
2024/01/07 00:58:42;;;;;;;1.87;1.20;;;;;;;;;;6172183;23;20554;-92
2024/01/07 01:01:47;;;;;;;0.83;0.83;;;;;;;;;;6171387;23;20200;-91
2024/01/07 01:04:55;;;;;;;4.90;1.40;;;;;;;;;;6172256;23;20173;-93
2024/01/07 01:08:01;;;;;;;1.47;1.37;;;;;;;;;;6173228;23;20501;-92
2024/01/07 01:11:06;;;;;;;0.80;0.80;;;;;;;;;;6171997;23;20153;-91
2024/01/07 01:14:12;;;;;;;1.10;1.00;;;;;;;;;;6172685;23;20212;-91
2024/01/07 01:17:18;;;;;;;0.87;0.87;;;;;;;;;;6172937;23;20168;-90
2024/01/07 01:20:25;;;;;;;0.83;0.83;;;;;;;;;;6175569;23;20240;-91
2024/01/07 01:23:30;;;;;;;1.03;0.97;;;;;;;;;;6175569;23;20180;-93
2024/01/07 01:26:36;;;;;;;1.13;1.03;;;;;;;;;;6174379;23;20167;-94
2024/01/07 01:29:42;;;;;;;2.13;1.97;;;;;;;;;;6173843;23;20184;-92
2024/01/07 01:32:48;;;;;;;1.57;1.47;;;;;;;;;;6174061;23;20172;-89
2024/01/07 01:35:55;;;;;;;1.57;1.40;;;;;;;;;;6173768;23;20184;-92
2024/01/07 01:39:01;;;;;;;1.20;0.97;;;;;;;;;;6172794;23;20168;-91
2024/01/07 01:42:07;;;;;;;3.23;1.93;;;;;;;;;;6173009;23;20173;-91
2024/01/07 01:45:13;;;;;;;1.20;1.10;;;;;;;;;;6172578;23;20222;-93
2024/01/07 01:48:19;;;;;;;2.20;1.73;;;;;;;;;;6172379;23;20173;-91
2024/01/07 01:51:27;;;;;;;2.27;1.40;;;;;;;;;;6173532;23;20227;-91
2024/01/07 01:54:32;;;;;;;1.00;1.00;;;;;;;;;;6172418;23;20495;-91
2024/01/07 01:57:40;;;;;;;1.07;1.07;;;;;;;;;;6174313;23;20144;-91
2024/01/07 02:00:46;;;;;;;0.73;0.73;;;;;;;;;;6174309;23;20184;-90
2024/01/07 02:03:54;;;;;;;1.60;1.40;;;;;;;;;;6175230;23;20212;-93
2024/01/07 02:07:02;;;;;;;2.17;1.90;;;;;;;;;;6175364;23;20612;-90
2024/01/07 02:10:08;;;;;;;3.17;1.27;;;;;;;;;;6175684;23;20196;-90
2024/01/07 02:13:16;;;;;;;0.73;0.70;;;;;;;;;;6175053;23;20172;-93
2024/01/07 02:16:22;;;;;;;1.73;1.40;;;;;;;;;;6172502;23;20216;-90
2024/01/07 02:19:27;;;;;;;1.03;1.00;;;;;;;;;;6173150;23;20215;-91
2024/01/07 02:22:34;;;;;;;1.43;1.33;;;;;;;;;;6175363;23;20173;-92
2024/01/07 02:25:41;;;;;;;0.77;0.77;;;;;;;;;;6175284;23;20169;-92
2024/01/07 02:28:46;;;;;;;0.60;0.60;;;;;;;;;;6175124;23;20175;-92
2024/01/07 02:31:52;;;;;;;11.10;1.77;;;;;;;;;;6176085;23;20167;-89
2024/01/07 02:34:57;;;;;;;0.77;0.77;;;;;;;;;;6176281;23;20520;-89
2024/01/07 02:38:03;;;;;;;2.83;0.90;;;;;;;;;;6177653;23;20241;-89
2024/01/07 02:41:10;;;;;;;0.53;0.53;;;;;;;;;;6177320;23;20244;-92
2024/01/07 02:44:16;;;;;;;6.13;1.27;;;;;;;;;;6174912;23;20233;-89
2024/01/07 02:47:21;;;;;;;2.97;1.73;;;;;;;;;;6175653;23;20149;-91
2024/01/07 02:50:27;;;;;;;1.20;1.10;;;;;;;;;;6174598;23;20275;-91
2024/01/07 02:53:33;;;;;;;2.17;0.77;;;;;;;;;;6175070;23;20164;-93
2024/01/07 02:56:39;;;;;;;1.47;0.87;;;;;;;;;;6175635;23;20226;-90
2024/01/07 02:59:45;;;;;;;0.80;0.80;;;;;;;;;;6175716;23;20193;-91
2024/01/07 03:02:51;;;;;;;0.73;0.73;;;;;;;;;;6174669;23;20192;-92
2024/01/07 03:05:56;;;;;;;0.50;0.50;;;;;;;;;;6174134;23;20213;-90
2024/01/07 03:09:02;;;;;;;1.13;0.77;;;;;;;;;;6173399;23;20195;-92
2024/01/07 03:12:10;;;;;;;0.97;0.87;;;;;;;;;;6174383;23;20518;-91
2024/01/07 03:15:15;;;;;;;0.93;0.93;;;;;;;;;;6173639;23;20169;-94
2024/01/07 03:18:21;;;;;;;0.67;0.67;;;;;;;;;;6173326;23;20612;-92
2024/01/07 03:21:26;;;;;;;0.60;0.60;;;;;;;;;;6173343;23;20168;-92
2024/01/07 03:24:32;;;;;;;0.77;0.77;;;;;;;;;;6174386;23;20173;-93
2024/01/07 03:27:38;;;;;;;0.43;0.43;;;;;;;;;;6176075;23;20156;-91
2024/01/07 03:30:44;;;;;;;0.60;0.60;;;;;;;;;;6175246;23;20247;-93
2024/01/07 03:33:49;;;;;;;1.20;1.10;;;;;;;;;;6174167;23;20252;-93
2024/01/07 03:36:55;;;;;;;0.50;0.50;;;;;;;;;;6173410;23;20209;-91
2024/01/07 03:40:00;;;;;;;0.73;0.57;;;;;;;;;;6172829;23;20172;-91
2024/01/07 03:43:07;;;;;;;0.40;0.40;;;;;;;;;;6174500;23;20177;-92
2024/01/07 03:46:13;;;;;;;1.00;0.90;;;;;;;;;;6173423;23;20172;-93
2024/01/07 03:49:19;;;;;;;0.47;0.47;;;;;;;;;;6171833;23;20215;-91
2024/01/07 03:52:23;;;;;;;0.63;0.50;;;;;;;;;;6173599;23;20164;-91
2024/01/07 03:55:29;;;;;;;0.30;0.30;;;;;;;;;;6172061;23;20181;-93
2024/01/07 03:58:36;;;;;;;1.17;0.67;;;;;;;;;;6172786;23;20151;-92
2024/01/07 04:01:42;;;;;;;0.63;0.63;;;;;;;;;;6173258;23;20192;-92
2024/01/07 04:04:47;;;;;;;0.40;0.40;;;;;;;;;;6172090;23;20153;-94
2024/01/07 04:07:53;;;;;;;0.60;0.60;;;;;;;;;;6172377;23;20177;-91
2024/01/07 04:10:59;;;;;;;3.57;0.67;;;;;;;;;;6172264;23;20633;-91
2024/01/07 04:14:05;;;;;;;0.53;0.53;;;;;;;;;;6173409;23;20205;-91
2024/01/07 04:17:11;;;;;;;0.57;0.57;;;;;;;;;;6174084;23;20216;-93
2024/01/07 04:20:16;;;;;;;0.77;0.63;;;;;;;;;;6173469;23;20220;-91
2024/01/07 04:23:21;;;;;;;0.77;0.53;;;;;;;;;;6172669;23;20152;-92
2024/01/07 04:26:26;;;;;;;0.50;0.50;;;;;;;;;;6172242;23;20168;-91
2024/01/07 04:29:33;;;;;;;1.67;1.33;;;;;;;;;;6173272;23;20659;-92
2024/01/07 04:32:39;;;;;;;0.50;0.50;;;;;;;;;;6172400;23;20176;-92
2024/01/07 04:35:44;;;;;;;0.50;0.50;;;;;;;;;;6173681;23;20226;-92
2024/01/07 04:38:50;;;;;;;0.30;0.30;;;;;;;;;;6173108;23;20177;-92
2024/01/07 04:41:55;;;;;;;3.10;1.03;;;;;;;;;;6172783;23;20612;-91
2024/01/07 04:45:02;;;;;;;1.90;1.07;;;;;;;;;;6172611;23;20794;-92
2024/01/07 04:48:08;;;;;;;0.50;0.50;;;;;;;;;;6173693;23;20164;-92
2024/01/07 04:51:13;;;;;;;0.40;0.40;;;;;;;;;;6172682;23;20196;-94
2024/01/07 04:54:19;;;;;;;1.20;1.00;;;;;;;;;;6172622;23;20156;-91
2024/01/07 04:57:24;;;;;;;0.50;0.50;;;;;;;;;;6172100;23;20165;-90
2024/01/07 05:00:31;;;;;;;0.40;0.40;;;;;;;;;;6171493;23;20176;-93
2024/01/07 05:03:37;;;;;;;0.80;0.80;;;;;;;;;;6173603;23;20152;-91
2024/01/07 05:06:45;;;;;;;0.60;0.60;;;;;;;;;;6173783;23;20169;-93
2024/01/07 05:09:54;;;;;;;0.40;0.40;;;;;;;;;;6172920;23;20237;-90
2024/01/07 05:13:04;;;;;;;0.30;0.30;;;;;;;;;;6173198;23;20156;-92
2024/01/07 05:16:19;;;;;;;0.50;0.50;;;;;;;;;;6172833;23;20173;-92
2024/01/07 05:19:24;;;;;;;1.17;0.77;;;;;;;;;;6172804;23;20172;-91
2024/01/07 05:22:29;;;;;;;12.63;0.70;;;;;;;;;;6171054;23;20216;-91
2024/01/07 05:25:34;;;;;;;0.50;0.50;;;;;;;;;;6171026;23;20221;-92
2024/01/07 05:28:40;;;;;;;0.40;0.40;;;;;;;;;;6174308;23;20189;-92
2024/01/07 05:31:47;;;;;;;0.40;0.40;;;;;;;;;;6173883;23;20217;-90
2024/01/07 05:34:53;;;;;;;0.30;0.30;;;;;;;;;;6174582;23;20185;-93
2024/01/07 05:38:01;;;;;;;0.50;0.50;;;;;;;;;;6172137;23;20611;-92
2024/01/07 05:41:07;;;;;;;0.30;0.30;;;;;;;;;;6174901;23;20169;-91
2024/01/07 05:44:14;;;;;;;0.43;0.43;;;;;;;;;;6172611;23;20168;-93
2024/01/07 05:47:21;;;;;;;0.40;0.40;;;;;;;;;;6172455;23;20192;-91
2024/01/07 05:50:30;;;;;;;0.50;0.50;;;;;;;;;;6174769;23;20237;-93
2024/01/07 05:53:37;;;;;;;0.57;0.57;;;;;;;;;;6173517;23;20165;-91
2024/01/07 05:56:43;;;;;;;0.30;0.30;;;;;;;;;;6176001;23;20148;-93
2024/01/07 05:59:50;;;;;;;0.87;0.83;;;;;;;;;;6173687;23;20173;-93
2024/01/07 06:02:57;;;;;;;0.40;0.40;;;;;;;;;;6173474;23;20200;-91
2024/01/07 06:06:02;;;;;;;0.30;0.30;;;;;;;;;;6173857;23;20156;-90
2024/01/07 06:09:08;;;;;;;0.40;0.40;;;;;;;;;;6172394;23;20167;-90
2024/01/07 06:12:14;;;;;;;0.40;0.40;;;;;;;;;;6173328;23;20164;-92
2024/01/07 06:15:19;;;;;;;0.30;0.30;;;;;;;;;;6172286;23;20723;-94
2024/01/07 06:18:26;;;;;;;0.30;0.30;;;;;;;;;;6171446;23;20237;-93
2024/01/07 06:21:32;;;;;;;0.30;0.30;;;;;;;;;;6170703;23;20176;-91
2024/01/07 06:24:37;;;;;;;0.30;0.30;;;;;;;;;;6169925;23;20168;-91
2024/01/07 06:27:43;;;;;;;0.60;0.60;;;;;;;;;;6171834;23;20168;-91
2024/01/07 06:30:49;;;;;;;0.30;0.30;;;;;;;;;;6171316;23;20236;-93
2024/01/07 06:33:56;;;;;;;0.30;0.30;;;;;;;;;;6170131;23;20192;-93
2024/01/07 06:37:01;;;;;;;0.50;0.50;;;;;;;;;;6169626;23;20216;-90
2024/01/07 06:40:07;;;;;;;0.67;0.60;;;;;;;;;;6171731;23;20164;-94
2024/01/07 06:43:13;;;;;;;0.40;0.40;;;;;;;;;;6173018;23;20165;-91
2024/01/07 06:46:18;;;;;;;0.40;0.40;;;;;;;;;;6173052;23;20176;-93
2024/01/07 06:49:29;;;;;;;0.33;0.33;;;;;;;;;;6172638;23;20296;-91
2024/01/07 06:52:34;;;;;;;0.30;0.30;;;;;;;;;;6171330;23;20171;-90
2024/01/07 06:55:40;;;;;;;0.40;0.40;;;;;;;;;;6171244;23;20173;-91
2024/01/07 06:58:46;;;;;;;0.30;0.30;;;;;;;;;;6171364;23;20173;-93
2024/01/07 07:01:51;;;;;;;0.40;0.40;;;;;;;;;;6172070;23;20259;-90
2024/01/07 07:04:58;;;;;;;0.40;0.40;;;;;;;;;;6173458;23;20169;-92
2024/01/07 07:08:04;;;;;;;0.30;0.30;;;;;;;;;;6172448;23;20164;-90
2024/01/07 07:11:10;;;;;;;2.07;0.97;;;;;;;;;;6173472;23;20194;-90
2024/01/07 07:14:16;;;;;;;0.40;0.40;;;;;;;;;;6173029;23;20164;-90
2024/01/07 07:17:22;;;;;;;0.43;0.43;;;;;;;;;;6175571;23;20169;-91
2024/01/07 07:20:29;;;;;;;0.60;0.60;;;;;;;;;;6175199;23;20222;-93
2024/01/07 07:23:34;;;;;;;0.40;0.40;;;;;;;;;;6175835;23;20193;-94
2024/01/07 07:26:40;;;;;;;0.50;0.50;;;;;;;;;;6172675;23;20153;-92
2024/01/07 07:29:46;;;;;;;0.30;0.30;;;;;;;;;;6175148;23;20152;-91
2024/01/07 07:32:51;;;;;;;0.77;0.70;;;;;;;;;;6175446;23;20176;-93
2024/01/07 07:35:58;;;;;;;0.50;0.50;;;;;;;;;;6173385;23;20173;-91
2024/01/07 07:39:03;;;;;;;0.70;0.70;;;;;;;;;;6172128;23;20163;-93
2024/01/07 07:42:10;;;;;;;0.40;0.40;;;;;;;;;;6170167;23;20168;-94
2024/01/07 07:45:19;;;;;;;0.50;0.50;;;;;;;;;;6172128;23;20173;-92
2024/01/07 07:48:34;;;;;;;0.50;0.50;;;;;;;;;;6173589;23;20177;-91
2024/01/07 07:51:42;;;;;;;0.40;0.40;;;;;;;;;;6175107;23;20196;-94
2024/01/07 07:54:47;;;;;;;0.47;0.47;;;;;;;;;;6175576;23;20168;-92
2024/01/07 07:58:02;;;;;;;0.43;0.43;;;;;;;;;;6173094;23;20152;-92
2024/01/07 08:01:11;;;;;;;3.50;0.73;;;;;;;;;;6175638;23;20196;-94
2024/01/07 08:04:18;;;;;;;0.60;0.60;;;;;;;;;;6172271;23;20161;-90
2024/01/07 08:07:26;;;;;;;0.30;0.30;;;;;;;;;;6174922;23;20168;-94
2024/01/07 08:10:32;;;;;;;0.40;0.40;;;;;;;;;;6173784;23;20218;-90
2024/01/07 08:13:37;;;;;;;0.30;0.30;;;;;;;;;;6171873;23;20181;-93
2024/01/07 08:16:43;;;;;;;0.40;0.40;;;;;;;;;;6171820;23;20635;-91
2024/01/07 08:19:49;;;;;;;0.50;0.50;;;;;;;;;;6173671;23;20172;-92
2024/01/07 08:22:56;;;;;;;0.80;0.80;;;;;;;;;;6172812;23;20172;-92
2024/01/07 08:26:01;;;;;;;0.40;0.40;;;;;;;;;;6171161;23;20153;-91
2024/01/07 08:29:07;;;;;;;0.50;0.50;;;;;;;;;;6170713;23;20175;-92
2024/01/07 08:32:13;;;;;;;0.60;0.60;;;;;;;;;;6171488;23;20722;-92
2024/01/07 08:35:18;;;;;;;0.30;0.30;;;;;;;;;;6172737;23;20173;-91
2024/01/07 08:38:26;;;;;;;2.20;0.90;;;;;;;;;;6171066;23;20192;-91
2024/01/07 08:41:31;;;;;;;2.97;0.93;;;;;;;;;;6171093;23;20172;-93
2024/01/07 08:44:37;;;;;;;0.80;0.63;;;;;;;;;;6171833;23;20193;-93
2024/01/07 08:47:42;;;;;;;0.40;0.40;;;;;;;;;;6171101;23;20249;-93
2024/01/07 08:50:52;;;;;;;0.60;0.60;;;;;;;;;;6172971;23;20249;-90
2024/01/07 08:53:59;;;;;;;0.40;0.40;;;;;;;;;;6171965;23;20597;-91
2024/01/07 08:57:06;;;;;;;0.67;0.67;;;;;;;;;;6171498;23;20172;-90
2024/01/07 09:00:11;;;;;;;0.97;0.93;;;;;;;;;;6171670;23;20189;-91
2024/01/07 09:03:17;;;;;;;0.93;0.87;;;;;;;;;;6173333;23;20201;-90
2024/01/07 09:06:31;;;;;;;0.50;0.50;;;;;;;;;;6172004;23;20169;-93
2024/01/07 09:09:41;;;;;;;2.00;1.03;;;;;;;;;;6171050;23;20197;-92
2024/01/07 09:12:49;;;;;;;0.40;0.40;;;;;;;;;;6169765;23;20164;-91
2024/01/07 09:15:55;;;;;;;0.97;0.87;;;;;;;;;;6167151;23;20152;-93
2024/01/07 09:19:00;;;;;;;0.40;0.40;;;;;;;;;;6169257;23;20177;-95
2024/01/07 09:22:05;;;;;;;0.70;0.70;;;;;;;;;;6170549;23;20185;-93
2024/01/07 09:25:13;;;;;;;0.83;0.83;;;;;;;;;;6170181;23;20230;-93
2024/01/07 09:28:18;;;;;;;0.40;0.40;;;;;;;;;;6167756;23;20161;-92
2024/01/07 09:31:23;;;;;;;0.77;0.73;;;;;;;;;;6169581;23;20238;-90
2024/01/07 09:34:28;;;;;;;1.00;0.90;;;;;;;;;;6168337;23;20458;-94
2024/01/07 09:37:35;;;;;;;0.40;0.40;;;;;;;;;;6167970;23;20177;-92
2024/01/07 09:40:42;;;;;;;0.50;0.50;;;;;;;;;;6166848;23;20280;-91
2024/01/07 09:43:47;;;;;;;0.87;0.87;;;;;;;;;;6167107;23;20176;-93
2024/01/07 09:46:53;;;;;;;0.53;0.53;;;;;;;;;;6169984;23;20216;-92
2024/01/07 09:49:59;;;;;;;1.40;1.03;;;;;;;;;;6170993;23;20168;-91
2024/01/07 09:53:04;;;;;;;0.47;0.47;;;;;;;;;;6168294;23;20173;-90
2024/01/07 09:56:14;;;;;;;0.73;0.73;;;;;;;;;;6170949;23;20213;-92
2024/01/07 09:59:20;;;;;;;0.50;0.50;;;;;;;;;;6169274;23;20172;-91
2024/01/07 10:02:25;;;;;;;1.03;1.00;;;;;;;;;;6169942;23;20203;-91
2024/01/07 10:05:35;;;;;;;0.70;0.70;;;;;;;;;;6170408;23;20251;-92
2024/01/07 10:08:40;;;;;;;0.50;0.50;;;;;;;;;;6168271;23;20232;-92
2024/01/07 10:11:48;;;;;;;0.30;0.30;;;;;;;;;;6170442;23;20211;-92
2024/01/07 10:14:53;;;;;;;0.40;0.40;;;;;;;;;;6170397;23;20296;-90
2024/01/07 10:18:05;;;;;;;0.50;0.50;;;;;;;;;;6172219;23;20160;-92
2024/01/07 10:21:10;;;;;;;0.40;0.40;;;;;;;;;;6171421;23;20177;-90
2024/01/07 10:24:15;;;;;;;1.63;1.27;;;;;;;;;;6172955;23;20196;-93
2024/01/07 10:27:24;;;;;;;0.47;0.47;;;;;;;;;;6171744;23;20164;-91
2024/01/07 10:30:30;;;;;;;1.50;0.83;;;;;;;;;;6172292;23;20172;-91
2024/01/07 10:33:35;;;;;;;0.30;0.30;;;;;;;;;;6172539;23;20153;-94
2024/01/07 10:36:42;;;;;;;0.70;0.70;;;;;;;;;;6171686;23;20184;-93
2024/01/07 10:39:52;;;;;;;0.47;0.47;;;;;;;;;;6171024;23;20175;-91
2024/01/07 10:43:00;;;;;;;1.53;1.07;;;;;;;;;;6171837;23;20177;-92
2024/01/07 10:46:13;;;;;;;0.60;0.60;;;;;;;;;;6171780;23;20181;-92
2024/01/07 10:49:21;;;;;;;0.60;0.60;;;;;;;;;;6172236;23;20311;-91
2024/01/07 10:52:28;;;;;;;0.40;0.40;;;;;;;;;;6174747;23;20187;-91
2024/01/07 10:55:36;;;;;;;0.53;0.50;;;;;;;;;;6174996;23;20236;-93
2024/01/07 10:58:57;;;;;;;0.50;0.50;;;;;;;;;;6174402;23;20536;-93
2024/01/07 11:05:25;;;;;;;1.53;1.10;;;;;;;;;;6174063;23;20213;-93
2024/01/07 11:08:34;;;;;;;0.70;0.70;;;;;;;;;;6175173;23;20173;-92
2024/01/07 11:11:42;;;;;;;0.70;0.70;;;;;;;;;;6175281;23;20196;-91
2024/01/07 11:14:54;;;;;;;0.57;0.57;;;;;;;;;;6175840;23;20195;-92
2024/01/07 11:18:04;;;;;;;0.30;0.30;;;;;;;;;;6175609;23;20173;-92
2024/01/07 11:21:09;;;;;;;0.60;0.53;;;;;;;;;;6176348;23;20531;-93
2024/01/07 11:24:29;;;;;;;2.40;0.90;;;;;;;;;;6176872;23;20181;-94
2024/01/07 11:27:35;;;;;;;0.97;0.93;;;;;;;;;;6172767;23;20156;-92
2024/01/07 11:30:43;;;;;;;2.20;1.23;;;;;;;;;;6174154;23;20204;-93
2024/01/07 11:33:50;;;;;;;1.03;0.93;;;;;;;;;;6175389;23;20155;-94
2024/01/07 11:36:56;;;;;;;0.60;0.60;;;;;;;;;;6176498;23;20218;-91
2024/01/07 11:40:02;;;;;;;1.03;0.97;;;;;;;;;;6175912;23;20247;-92
2024/01/07 11:43:08;;;;;;;0.63;0.63;;;;;;;;;;6174478;23;20169;-92
2024/01/07 11:46:16;;;;;;;0.67;0.67;;;;;;;;;;6173940;23;20177;-91
2024/01/07 11:49:21;;;;;;;2.10;0.77;;;;;;;;;;6173263;23;20185;-91
2024/01/07 11:52:29;;;;;;;0.73;0.73;;;;;;;;;;6172686;23;20183;-92
2024/01/07 11:55:36;;;;;;;0.87;0.87;;;;;;;;;;6173398;23;20177;-92
2024/01/07 11:58:47;;;;;;;2.27;0.77;;;;;;;;;;6173713;23;20176;-92
2024/01/07 12:01:54;;;;;;;0.70;0.70;;;;;;;;;;6175241;23;20196;-91
2024/01/07 12:04:59;;;;;;;2.10;1.07;;;;;;;;;;6175068;23;20161;-92
2024/01/07 12:08:05;;;;;;;0.60;0.60;;;;;;;;;;6174881;23;20172;-90
2024/01/07 12:11:26;;;;;;;1.10;1.03;;;;;;;;;;6176446;23;20176;-92
2024/01/07 12:14:32;;;;;;;0.63;0.63;;;;;;;;;;6176512;23;20173;-93
2024/01/07 12:17:46;;;;;;;0.90;0.90;;;;;;;;;;6174735;23;20189;-93
2024/01/07 12:20:59;;;;;;;0.57;0.57;;;;;;;;;;6174434;23;20200;-91
2024/01/07 12:24:05;;;;;;;1.17;1.07;;;;;;;;;;6078239;23;20228;-93
2024/01/07 12:27:13;;;;;;;0.77;0.77;;;;;;;;;;6144114;23;20173;-93
2024/01/07 12:30:20;;;;;;;0.60;0.60;;;;;;;;;;6143979;23;20162;-93
2024/01/07 12:33:29;;;;;;;0.90;0.90;;;;;;;;;;6144124;23;20247;-93
2024/01/07 12:36:36;;;;;;;0.70;0.70;;;;;;;;;;6143440;23;20209;-92
2024/01/07 12:39:42;;;;;;;1.00;1.00;;;;;;;;;;6144696;23;20197;-92
2024/01/07 12:42:49;;;;;;;0.63;0.60;;;;;;;;;;6143902;23;20165;-90
2024/01/07 12:45:56;;;;;;;0.50;0.50;;;;;;;;;;6144438;23;20189;-91
2024/01/07 12:49:04;;;;;;;0.93;0.93;;;;;;;;;;6145403;23;20226;-94
2024/01/07 12:52:09;;;;;;;0.93;0.93;;;;;;;;;;6144693;23;20196;-93
2024/01/07 12:55:15;;;;;;;11.73;1.17;;;;;;;;;;6145413;23;20238;-91
2024/01/07 12:58:22;;;;;;;0.60;0.60;;;;;;;;;;6144158;23;20161;-90
2024/01/07 13:01:31;;;;;;;2.50;1.23;;;;;;;;;;6144233;23;20176;-94
2024/01/07 13:04:38;;;;;;;0.40;0.40;;;;;;;;;;6161804;23;20153;-91
2024/01/07 13:07:44;;;;;;;0.80;0.60;;;;;;;;;;6161153;23;20217;-90
2024/01/07 13:10:49;;;;;;;0.80;0.80;;;;;;;;;;6142721;23;20186;-92
2024/01/07 13:13:58;;;;;;;0.80;0.80;;;;;;;;;;6143596;23;20166;-92
2024/01/07 16:16:03;;;;;;;1.00;1.00;;;;;;;;;;6050134;23;20217;-93
2024/01/07 16:19:10;;;;;;;3.80;0.77;;;;;;;;;;6136101;23;20209;-92
2024/01/07 16:22:17;;;;;;;0.60;0.60;;;;;;;;;;6148624;23;20244;-92
2024/01/07 16:25:23;;;;;;;0.70;0.60;;;;;;;;;;6164505;23;20153;-91
2024/01/07 16:28:32;;;;;;;1.33;0.87;;;;;;;;;;6148541;23;20675;-92
2024/01/07 16:31:41;;;;;;;2.93;1.53;;;;;;;;;;6150291;23;20161;-92
2024/01/07 16:34:49;;;;;;;0.73;0.73;;;;;;;;;;6148928;23;20270;-92
2024/01/07 16:41:15;;;;;;;0.97;0.63;;;;;;;;;;6148833;23;20177;-92
2024/01/07 16:44:21;;;;;;;2.43;1.40;;;;;;;;;;6146463;23;20161;-90
2024/01/07 16:47:28;;;;;;;1.83;1.20;;;;;;;;;;6145266;23;20214;-93
2024/01/07 16:50:34;;;;;;;3.00;1.40;;;;;;;;;;6145593;23;20213;-92
2024/01/07 16:53:40;;;;;;;0.60;0.60;;;;;;;;;;6145669;23;20248;-91
2024/01/07 16:56:46;;;;;;;4.00;2.03;;;;;;;;;;6143786;23;20221;-91
2024/01/07 16:59:52;;;;;;;0.40;0.40;;;;;;;;;;6143620;23;20173;-90
2024/01/07 17:03:12;;;;;;;1.20;1.10;;;;;;;;;;6144170;23;20169;-92
2024/01/07 17:06:17;;;;;;;0.40;0.40;;;;;;;;;;6143586;23;20198;-91
2024/01/07 17:09:24;;;;;;;1.13;1.03;;;;;;;;;;6127128;23;20210;-92
2024/01/07 17:12:30;;;;;;;11.93;5.80;;;;;;;;;;6148849;23;20209;-92
2024/01/07 17:15:38;;;;;;;13.30;6.00;;;;;;;;;;6147811;23;20218;-93
2024/01/07 17:18:46;;;;;;;11.63;5.93;;;;;;;;;;6146357;23;20209;-92
2024/01/07 17:21:52;;;;;;;11.20;5.87;;;;;;;;;;6144893;23;20202;-92
2024/01/07 17:28:18;;;;;;;15.30;6.60;;;;;;;;;;6144346;23;20234;-92
2024/01/07 17:31:24;;;;;;;14.17;7.13;;;;;;;;;;6145396;23;20165;-92
2024/01/07 17:34:34;;;;;;;12.23;5.70;;;;;;;;;;6162930;23;20253;-90
2024/01/07 17:37:39;;;;;;;14.00;6.50;;;;;;;;;;6145924;23;20176;-91
2024/01/07 17:44:06;;;;;;;11.97;6.03;;;;;;;;;;6146562;23;20205;-91
2024/01/07 17:47:12;;;;;;;15.10;6.80;;;;;;;;;;6147183;23;20158;-93
2024/01/07 17:50:28;;;;;;;14.53;6.87;;;;;;;;;;6147143;23;20203;-91
2024/01/07 23:00:35;;;;;;;7.83;4.30;;;;;;;;;;6039679;23;20201;-89
2024/01/07 23:03:43;;;;;;;9.07;4.10;;;;;;;;;;6150388;23;20189;-92
2024/01/07 23:06:48;;;;;;;9.17;4.17;;;;;;;;;;6132612;23;20212;-93
2024/01/07 23:09:58;;;;;;;8.67;4.40;;;;;;;;;;6124813;23;20170;-91
2024/01/07 23:13:03;;;;;;;8.80;4.33;;;;;;;;;;6148404;23;20193;-91
2024/01/07 23:16:10;;;;;;;4.73;2.90;;;;;;;;;;6149475;23;20223;-92
2024/01/07 23:22:53;;;;;;;8.13;3.93;;;;;;;;;;6032062;23;20236;-90
2024/01/07 23:25:58;;;;;;;7.20;4.00;;;;;;;;;;6032284;23;20619;-91
2024/01/07 23:29:04;;;;;;;6.33;3.20;;;;;;;;;;6030735;23;20240;-91
2024/01/07 23:32:12;;;;;;;7.37;3.90;;;;;;;;;;6028158;23;20243;-92
2024/01/07 23:35:17;;;;;;;6.20;2.90;;;;;;;;;;6029591;23;20168;-91
2024/01/07 23:38:22;;;;;;;8.03;4.27;;;;;;;;;;6029491;23;20226;-91
2024/01/07 23:41:28;;;;;;;8.50;3.73;;;;;;;;;;6029977;23;20182;-92
2024/01/07 23:44:34;;;;;;;4.37;2.50;;;;;;;;;;6030971;23;20172;-91
2024/01/07 23:47:41;;;;;;;6.73;3.90;;;;;;;;;;6034447;23;20221;-90
2024/01/07 23:57:06;;;;;;;9.83;4.43;;;;;;;;;;6005969;23;20195;-92
